sensor_id;sensor_type;location;lat;lon;timestamp;temperature;humidity
20698;DHT22;10508;50.956;4.640;2023-07-20T00:17:19;17.00;99.90
20698;DHT22;10508;50.956;4.640;2023-07-20T00:19:44;17.30;99.90
20698;DHT22;10508;50.956;4.640;2023-07-20T00:22:28;17.20;99.90
20698;DHT22;10508;50.956;4.640;2023-07-20T00:24:54;17.10;99.90
20698;DHT22;10508;50.956;4.640;2023-07-20T00:27:19;17.10;99.90
20698;DHT22;10508;50.956;4.640;2023-07-20T00:29:45;17.00;99.90
20698;DHT22;10508;50.956;4.640;2023-07-20T00:32:11;17.00;99.90
20698;DHT22;10508;50.956;4.640;2023-07-20T00:34:38;16.90;99.90
20698;DHT22;10508;50.956;4.640;2023-07-20T00:39:32;16.90;99.90
20698;DHT22;10508;50.956;4.640;2023-07-20T00:44:29;16.70;99.90
20698;DHT22;10508;50.956;4.640;2023-07-20T01:12:26;17.10;99.90
20698;DHT22;10508;50.956;4.640;2023-07-20T01:14:53;17.20;99.90
20698;DHT22;10508;50.956;4.640;2023-07-20T01:17:19;17.10;99.90
20698;DHT22;10508;50.956;4.640;2023-07-20T01:19:45;17.10;99.90
20698;DHT22;10508;50.956;4.640;2023-07-20T01:31:27;16.90;99.90
20698;DHT22;10508;50.956;4.640;2023-07-20T01:33:58;16.90;99.90
20698;DHT22;10508;50.956;4.640;2023-07-20T01:41:18;16.80;99.90
20698;DHT22;10508;50.956;4.640;2023-07-20T02:35:19;16.00;99.90
20698;DHT22;10508;50.956;4.640;2023-07-20T02:37:44;16.10;99.90
20698;DHT22;10508;50.956;4.640;2023-07-20T02:45:06;16.10;99.90
20698;DHT22;10508;50.956;4.640;2023-07-20T02:47:32;16.10;99.90
20698;DHT22;10508;50.956;4.640;2023-07-20T02:49:59;16.00;99.90
20698;DHT22;10508;50.956;4.640;2023-07-20T02:52:27;16.10;99.90
20698;DHT22;10508;50.956;4.640;2023-07-20T02:54:55;15.30;99.90
20698;DHT22;10508;50.956;4.640;2023-07-20T02:57:20;15.90;99.90
20698;DHT22;10508;50.956;4.640;2023-07-20T03:02:13;15.90;99.90
20698;DHT22;10508;50.956;4.640;2023-07-20T03:24:16;15.60;99.90
20698;DHT22;10508;50.956;4.640;2023-07-20T04:10:55;16.20;99.90
20698;DHT22;10508;50.956;4.640;2023-07-20T04:13:21;16.20;99.90
20698;DHT22;10508;50.956;4.640;2023-07-20T04:15:47;16.10;99.90
20698;DHT22;10508;50.956;4.640;2023-07-20T04:18:13;16.00;99.90
20698;DHT22;10508;50.956;4.640;2023-07-20T04:20:38;16.00;99.90
20698;DHT22;10508;50.956;4.640;2023-07-20T04:23:04;15.70;99.90
20698;DHT22;10508;50.956;4.640;2023-07-20T04:25:30;15.90;99.90
20698;DHT22;10508;50.956;4.640;2023-07-20T04:33:03;16.20;99.90
20698;DHT22;10508;50.956;4.640;2023-07-20T04:40:44;16.60;99.90
20698;DHT22;10508;50.956;4.640;2023-07-20T04:43:10;16.50;99.90
20698;DHT22;10508;50.956;4.640;2023-07-20T04:45:38;16.40;99.90
20698;DHT22;10508;50.956;4.640;2023-07-20T04:55:27;16.50;99.90
20698;DHT22;10508;50.956;4.640;2023-07-20T04:57:53;16.60;99.90
20698;DHT22;10508;50.956;4.640;2023-07-20T05:00:19;16.50;99.90
20698;DHT22;10508;50.956;4.640;2023-07-20T05:17:30;16.70;99.90
20698;DHT22;10508;50.956;4.640;2023-07-20T05:19:56;16.80;99.90
20698;DHT22;10508;50.956;4.640;2023-07-20T05:22:21;16.70;99.90
20698;DHT22;10508;50.956;4.640;2023-07-20T05:32:11;16.90;99.90
20698;DHT22;10508;50.956;4.640;2023-07-20T05:34:36;16.90;99.90
20698;DHT22;10508;50.956;4.640;2023-07-20T05:37:02;16.90;99.90
20698;DHT22;10508;50.956;4.640;2023-07-20T06:04:06;17.20;99.90
20698;DHT22;10508;50.956;4.640;2023-07-20T06:06:33;17.30;99.90
20698;DHT22;10508;50.956;4.640;2023-07-20T06:09:00;17.20;99.90
20698;DHT22;10508;50.956;4.640;2023-07-20T06:11:29;17.20;99.90
20698;DHT22;10508;50.956;4.640;2023-07-20T06:16:23;17.30;99.90
20698;DHT22;10508;50.956;4.640;2023-07-20T06:18:48;17.30;99.90
20698;DHT22;10508;50.956;4.640;2023-07-20T06:21:14;17.30;99.90
20698;DHT22;10508;50.956;4.640;2023-07-20T06:23:40;17.30;99.90
20698;DHT22;10508;50.956;4.640;2023-07-20T06:31:02;17.40;99.90
20698;DHT22;10508;50.956;4.640;2023-07-20T06:43:20;17.70;99.90
20698;DHT22;10508;50.956;4.640;2023-07-20T06:45:53;17.60;99.90
20698;DHT22;10508;50.956;4.640;2023-07-20T06:48:19;17.70;99.90
20698;DHT22;10508;50.956;4.640;2023-07-20T06:50:47;17.80;99.90
20698;DHT22;10508;50.956;4.640;2023-07-20T06:53:15;17.90;99.90
20698;DHT22;10508;50.956;4.640;2023-07-20T06:55:42;17.90;99.90
20698;DHT22;10508;50.956;4.640;2023-07-20T07:03:03;17.80;99.90
20698;DHT22;10508;50.956;4.640;2023-07-20T07:07:56;17.60;99.90
20698;DHT22;10508;50.956;4.640;2023-07-20T07:42:25;18.60;99.90
20698;DHT22;10508;50.956;4.640;2023-07-20T07:44:51;18.80;99.90
20698;DHT22;10508;50.956;4.640;2023-07-20T07:47:16;18.70;99.90
20698;DHT22;10508;50.956;4.640;2023-07-20T07:49:42;18.70;99.90
20698;DHT22;10508;50.956;4.640;2023-07-20T07:52:08;18.80;99.90
20698;DHT22;10508;50.956;4.640;2023-07-20T07:54:34;18.80;99.90
20698;DHT22;10508;50.956;4.640;2023-07-20T07:56:59;18.90;99.90
20698;DHT22;10508;50.956;4.640;2023-07-20T07:59:25;18.90;99.90
20698;DHT22;10508;50.956;4.640;2023-07-20T08:01:50;19.10;99.90
20698;DHT22;10508;50.956;4.640;2023-07-20T08:04:16;19.10;99.90
20698;DHT22;10508;50.956;4.640;2023-07-20T08:06:42;19.20;99.90
20698;DHT22;10508;50.956;4.640;2023-07-20T08:09:09;19.30;99.90
20698;DHT22;10508;50.956;4.640;2023-07-20T08:11:35;19.50;99.90
20698;DHT22;10508;50.956;4.640;2023-07-20T08:18:56;19.30;99.90
20698;DHT22;10508;50.956;4.640;2023-07-20T08:33:39;19.80;99.90
20698;DHT22;10508;50.956;4.640;2023-07-20T08:36:05;19.50;99.90
20698;DHT22;10508;50.956;4.640;2023-07-20T08:38:31;19.40;99.90
20698;DHT22;10508;50.956;4.640;2023-07-20T08:40:57;19.50;99.90
20698;DHT22;10508;50.956;4.640;2023-07-20T08:43:25;19.60;99.90
20698;DHT22;10508;50.956;4.640;2023-07-20T08:45:54;19.60;99.90
20698;DHT22;10508;50.956;4.640;2023-07-20T08:48:20;19.70;99.90
20698;DHT22;10508;50.956;4.640;2023-07-20T08:50:48;20.00;99.90
20698;DHT22;10508;50.956;4.640;2023-07-20T08:53:14;20.20;99.90
20698;DHT22;10508;50.956;4.640;2023-07-20T08:55:40;20.20;99.90
20698;DHT22;10508;50.956;4.640;2023-07-20T08:58:08;20.10;99.90
20698;DHT22;10508;50.956;4.640;2023-07-20T09:00:37;20.40;99.90
20698;DHT22;10508;50.956;4.640;2023-07-20T09:03:03;20.60;99.90
20698;DHT22;10508;50.956;4.640;2023-07-20T09:05:29;20.70;99.90
20698;DHT22;10508;50.956;4.640;2023-07-20T09:07:55;20.70;99.90
20698;DHT22;10508;50.956;4.640;2023-07-20T09:10:21;20.60;99.90
20698;DHT22;10508;50.956;4.640;2023-07-20T09:12:47;20.70;99.90
20698;DHT22;10508;50.956;4.640;2023-07-20T09:15:13;20.70;99.90
20698;DHT22;10508;50.956;4.640;2023-07-20T09:17:39;21.00;99.90
20698;DHT22;10508;50.956;4.640;2023-07-20T09:20:08;21.20;99.90
20698;DHT22;10508;50.956;4.640;2023-07-20T09:22:38;21.40;99.90
20698;DHT22;10508;50.956;4.640;2023-07-20T09:25:14;21.60;99.90
20698;DHT22;10508;50.956;4.640;2023-07-20T09:27:46;21.70;99.90
20698;DHT22;10508;50.956;4.640;2023-07-20T09:30:14;21.60;99.90
20698;DHT22;10508;50.956;4.640;2023-07-20T09:32:45;21.40;99.90
20698;DHT22;10508;50.956;4.640;2023-07-20T09:35:15;21.50;99.90
20698;DHT22;10508;50.956;4.640;2023-07-20T09:37:58;21.50;99.90
20698;DHT22;10508;50.956;4.640;2023-07-20T09:40:27;21.70;99.90
20698;DHT22;10508;50.956;4.640;2023-07-20T09:42:54;22.10;99.90
20698;DHT22;10508;50.956;4.640;2023-07-20T09:45:39;22.40;99.90
20698;DHT22;10508;50.956;4.640;2023-07-20T09:48:08;22.50;99.90
20698;DHT22;10508;50.956;4.640;2023-07-20T09:50:40;22.80;99.90
20698;DHT22;10508;50.956;4.640;2023-07-20T09:53:09;23.10;99.90
20698;DHT22;10508;50.956;4.640;2023-07-20T09:55:36;23.20;99.90
20698;DHT22;10508;50.956;4.640;2023-07-20T09:58:03;23.30;99.90
20698;DHT22;10508;50.956;4.640;2023-07-20T10:00:29;23.10;99.90
20698;DHT22;10508;50.956;4.640;2023-07-20T10:02:56;22.80;99.90
20698;DHT22;10508;50.956;4.640;2023-07-20T10:05:23;22.60;99.90
20698;DHT22;10508;50.956;4.640;2023-07-20T10:07:51;23.00;99.90
20698;DHT22;10508;50.956;4.640;2023-07-20T10:10:19;22.90;99.90
20698;DHT22;10508;50.956;4.640;2023-07-20T10:12:47;23.20;99.90
20698;DHT22;10508;50.956;4.640;2023-07-20T10:15:30;23.10;99.90
20698;DHT22;10508;50.956;4.640;2023-07-20T10:18:03;23.20;99.90
20698;DHT22;10508;50.956;4.640;2023-07-20T10:20:36;23.20;99.90
20698;DHT22;10508;50.956;4.640;2023-07-20T10:23:03;23.20;99.90
20698;DHT22;10508;50.956;4.640;2023-07-20T10:25:29;23.40;99.90
20698;DHT22;10508;50.956;4.640;2023-07-20T10:27:57;23.50;99.90
20698;DHT22;10508;50.956;4.640;2023-07-20T10:30:23;23.40;99.90
20698;DHT22;10508;50.956;4.640;2023-07-20T10:32:50;23.50;99.90
20698;DHT22;10508;50.956;4.640;2023-07-20T10:35:17;23.70;99.90
20698;DHT22;10508;50.956;4.640;2023-07-20T10:40:38;24.00;99.90
20698;DHT22;10508;50.956;4.640;2023-07-20T10:43:08;24.00;99.90
20698;DHT22;10508;50.956;4.640;2023-07-20T10:45:42;24.20;99.90
20698;DHT22;10508;50.956;4.640;2023-07-20T10:50:41;24.50;99.90
20698;DHT22;10508;50.956;4.640;2023-07-20T10:53:14;24.90;99.90
20698;DHT22;10508;50.956;4.640;2023-07-20T10:55:43;24.70;99.90
20698;DHT22;10508;50.956;4.640;2023-07-20T10:58:11;24.40;99.90
20698;DHT22;10508;50.956;4.640;2023-07-20T11:00:38;24.30;99.90
20698;DHT22;10508;50.956;4.640;2023-07-20T11:03:37;24.30;99.90
20698;DHT22;10508;50.956;4.640;2023-07-20T11:11:48;23.80;99.90
20698;DHT22;10508;50.956;4.640;2023-07-20T11:14:24;23.90;99.90
20698;DHT22;10508;50.956;4.640;2023-07-20T11:16:51;24.10;99.90
20698;DHT22;10508;50.956;4.640;2023-07-20T11:19:25;24.40;99.90
20698;DHT22;10508;50.956;4.640;2023-07-20T11:21:53;24.70;99.90
20698;DHT22;10508;50.956;4.640;2023-07-20T11:24:20;24.80;99.90
20698;DHT22;10508;50.956;4.640;2023-07-20T11:26:46;25.00;99.90
20698;DHT22;10508;50.956;4.640;2023-07-20T11:29:13;24.90;99.90
20698;DHT22;10508;50.956;4.640;2023-07-20T11:31:43;24.80;99.90
20698;DHT22;10508;50.956;4.640;2023-07-20T11:34:17;24.20;99.90
20698;DHT22;10508;50.956;4.640;2023-07-20T11:36:48;24.30;99.90
20698;DHT22;10508;50.956;4.640;2023-07-20T11:39:15;24.30;99.90
20698;DHT22;10508;50.956;4.640;2023-07-20T11:41:59;24.20;99.90
20698;DHT22;10508;50.956;4.640;2023-07-20T11:44:28;24.00;99.90
20698;DHT22;10508;50.956;4.640;2023-07-20T11:51:57;23.30;96.90
20698;DHT22;10508;50.956;4.640;2023-07-20T11:54:23;23.90;96.20
20698;DHT22;10508;50.956;4.640;2023-07-20T11:56:54;24.30;96.50
20698;DHT22;10508;50.956;4.640;2023-07-20T11:59:20;24.90;96.90
20698;DHT22;10508;50.956;4.640;2023-07-20T12:01:46;24.60;94.90
20698;DHT22;10508;50.956;4.640;2023-07-20T12:04:12;24.20;95.40
20698;DHT22;10508;50.956;4.640;2023-07-20T12:06:37;23.90;95.60
20698;DHT22;10508;50.956;4.640;2023-07-20T12:09:03;23.70;95.90
20698;DHT22;10508;50.956;4.640;2023-07-20T12:11:36;23.70;97.40
20698;DHT22;10508;50.956;4.640;2023-07-20T12:14:03;23.30;96.90
20698;DHT22;10508;50.956;4.640;2023-07-20T12:16:30;23.20;97.10
20698;DHT22;10508;50.956;4.640;2023-07-20T12:19:15;23.00;98.00
20698;DHT22;10508;50.956;4.640;2023-07-20T12:21:41;22.90;98.30
20698;DHT22;10508;50.956;4.640;2023-07-20T12:24:11;22.80;99.00
20698;DHT22;10508;50.956;4.640;2023-07-20T12:26:37;23.00;99.00
20698;DHT22;10508;50.956;4.640;2023-07-20T12:29:03;23.20;99.80
20698;DHT22;10508;50.956;4.640;2023-07-20T12:31:29;23.20;97.80
20698;DHT22;10508;50.956;4.640;2023-07-20T12:33:57;23.50;97.40
20698;DHT22;10508;50.956;4.640;2023-07-20T12:36:23;23.80;97.40
20698;DHT22;10508;50.956;4.640;2023-07-20T12:38:49;24.10;97.60
20698;DHT22;10508;50.956;4.640;2023-07-20T12:41:15;24.50;97.30
20698;DHT22;10508;50.956;4.640;2023-07-20T12:43:42;24.60;97.30
20698;DHT22;10508;50.956;4.640;2023-07-20T12:46:08;24.40;96.60
20698;DHT22;10508;50.956;4.640;2023-07-20T12:48:35;24.20;95.80
20698;DHT22;10508;50.956;4.640;2023-07-20T12:51:03;24.20;96.40
20698;DHT22;10508;50.956;4.640;2023-07-20T12:53:29;24.20;96.30
20698;DHT22;10508;50.956;4.640;2023-07-20T12:55:54;24.40;95.40
20698;DHT22;10508;50.956;4.640;2023-07-20T12:58:20;24.40;95.50
20698;DHT22;10508;50.956;4.640;2023-07-20T13:00:46;24.50;95.30
20698;DHT22;10508;50.956;4.640;2023-07-20T13:03:11;24.50;97.20
20698;DHT22;10508;50.956;4.640;2023-07-20T13:05:37;24.40;96.70
20698;DHT22;10508;50.956;4.640;2023-07-20T13:08:03;24.30;97.80
20698;DHT22;10508;50.956;4.640;2023-07-20T13:10:28;24.20;98.30
20698;DHT22;10508;50.956;4.640;2023-07-20T13:12:54;24.20;97.50
20698;DHT22;10508;50.956;4.640;2023-07-20T13:15:20;24.30;96.70
20698;DHT22;10508;50.956;4.640;2023-07-20T13:17:46;24.40;97.20
20698;DHT22;10508;50.956;4.640;2023-07-20T13:20:12;24.30;98.20
20698;DHT22;10508;50.956;4.640;2023-07-20T13:22:40;24.30;97.30
20698;DHT22;10508;50.956;4.640;2023-07-20T13:25:07;24.30;96.90
20698;DHT22;10508;50.956;4.640;2023-07-20T13:27:33;24.20;96.80
20698;DHT22;10508;50.956;4.640;2023-07-20T13:30:00;24.20;97.20
20698;DHT22;10508;50.956;4.640;2023-07-20T13:32:27;24.20;97.20
20698;DHT22;10508;50.956;4.640;2023-07-20T13:34:52;24.10;98.30
20698;DHT22;10508;50.956;4.640;2023-07-20T13:37:18;23.90;98.30
20698;DHT22;10508;50.956;4.640;2023-07-20T13:39:44;23.60;98.10
20698;DHT22;10508;50.956;4.640;2023-07-20T13:42:10;23.70;98.50
20698;DHT22;10508;50.956;4.640;2023-07-20T13:44:37;23.70;97.90
20698;DHT22;10508;50.956;4.640;2023-07-20T13:47:03;23.70;98.00
20698;DHT22;10508;50.956;4.640;2023-07-20T13:49:30;23.70;98.40
20698;DHT22;10508;50.956;4.640;2023-07-20T13:51:56;23.60;98.60
20698;DHT22;10508;50.956;4.640;2023-07-20T13:54:25;23.60;99.00
20698;DHT22;10508;50.956;4.640;2023-07-20T13:56:51;23.40;98.90
20698;DHT22;10508;50.956;4.640;2023-07-20T13:59:20;23.30;98.90
20698;DHT22;10508;50.956;4.640;2023-07-20T14:01:45;23.20;99.20
20698;DHT22;10508;50.956;4.640;2023-07-20T14:04:11;23.20;99.30
20698;DHT22;10508;50.956;4.640;2023-07-20T14:06:37;23.10;99.30
20698;DHT22;10508;50.956;4.640;2023-07-20T14:09:03;23.10;99.90
20698;DHT22;10508;50.956;4.640;2023-07-20T14:11:29;23.00;99.80
20698;DHT22;10508;50.956;4.640;2023-07-20T14:13:54;22.80;99.90
20698;DHT22;10508;50.956;4.640;2023-07-20T14:16:23;22.80;99.90
20698;DHT22;10508;50.956;4.640;2023-07-20T14:18:49;22.80;99.90
20698;DHT22;10508;50.956;4.640;2023-07-20T14:21:16;22.90;99.90
20698;DHT22;10508;50.956;4.640;2023-07-20T14:23:41;22.80;99.90
20698;DHT22;10508;50.956;4.640;2023-07-20T14:26:07;22.80;99.90
20698;DHT22;10508;50.956;4.640;2023-07-20T14:28:35;22.80;99.90
20698;DHT22;10508;50.956;4.640;2023-07-20T14:31:01;22.90;99.90
20698;DHT22;10508;50.956;4.640;2023-07-20T14:33:26;22.90;99.90
20698;DHT22;10508;50.956;4.640;2023-07-20T14:35:52;22.90;99.90
20698;DHT22;10508;50.956;4.640;2023-07-20T14:38:18;23.00;99.90
20698;DHT22;10508;50.956;4.640;2023-07-20T14:40:43;23.00;99.90
20698;DHT22;10508;50.956;4.640;2023-07-20T14:43:10;23.00;99.90
20698;DHT22;10508;50.956;4.640;2023-07-20T14:45:35;23.00;99.90
20698;DHT22;10508;50.956;4.640;2023-07-20T14:48:03;23.10;99.90
20698;DHT22;10508;50.956;4.640;2023-07-20T14:50:29;23.20;99.90
20698;DHT22;10508;50.956;4.640;2023-07-20T14:52:54;23.30;99.90
20698;DHT22;10508;50.956;4.640;2023-07-20T14:55:20;23.30;99.90
20698;DHT22;10508;50.956;4.640;2023-07-20T14:57:46;23.40;99.90
20698;DHT22;10508;50.956;4.640;2023-07-20T15:00:14;23.50;99.90
20698;DHT22;10508;50.956;4.640;2023-07-20T15:02:40;23.70;99.90
20698;DHT22;10508;50.956;4.640;2023-07-20T15:05:09;23.70;99.90
20698;DHT22;10508;50.956;4.640;2023-07-20T15:07:36;23.80;99.90
20698;DHT22;10508;50.956;4.640;2023-07-20T15:10:03;23.70;99.90
20698;DHT22;10508;50.956;4.640;2023-07-20T15:12:29;23.70;99.90
20698;DHT22;10508;50.956;4.640;2023-07-20T15:17:30;23.60;99.90
20698;DHT22;10508;50.956;4.640;2023-07-20T15:19:56;23.70;97.50
20698;DHT22;10508;50.956;4.640;2023-07-20T15:22:22;23.70;98.30
20698;DHT22;10508;50.956;4.640;2023-07-20T15:24:47;23.60;99.60
20698;DHT22;10508;50.956;4.640;2023-07-20T15:27:13;23.50;98.90
20698;DHT22;10508;50.956;4.640;2023-07-20T15:29:38;23.60;99.60
20698;DHT22;10508;50.956;4.640;2023-07-20T15:32:05;23.50;98.50
20698;DHT22;10508;50.956;4.640;2023-07-20T15:34:31;23.50;98.90
20698;DHT22;10508;50.956;4.640;2023-07-20T15:36:57;23.60;98.70
20698;DHT22;10508;50.956;4.640;2023-07-20T15:39:22;23.50;98.90
20698;DHT22;10508;50.956;4.640;2023-07-20T15:41:49;23.60;99.70
20698;DHT22;10508;50.956;4.640;2023-07-20T15:44:15;23.50;99.00
20698;DHT22;10508;50.956;4.640;2023-07-20T15:49:06;23.50;98.90
20698;DHT22;10508;50.956;4.640;2023-07-20T15:51:34;23.40;99.10
20698;DHT22;10508;50.956;4.640;2023-07-20T15:54:05;23.30;99.90
20698;DHT22;10508;50.956;4.640;2023-07-20T15:56:34;23.10;99.90
20698;DHT22;10508;50.956;4.640;2023-07-20T15:58:59;23.20;99.90
20698;DHT22;10508;50.956;4.640;2023-07-20T16:01:25;23.20;99.90
20698;DHT22;10508;50.956;4.640;2023-07-20T16:03:51;23.10;99.90
20698;DHT22;10508;50.956;4.640;2023-07-20T16:06:17;23.00;99.90
20698;DHT22;10508;50.956;4.640;2023-07-20T16:08:42;23.00;99.90
20698;DHT22;10508;50.956;4.640;2023-07-20T16:11:08;22.80;99.90
20698;DHT22;10508;50.956;4.640;2023-07-20T16:13:34;22.80;99.90
20698;DHT22;10508;50.956;4.640;2023-07-20T16:16:00;22.70;99.90
20698;DHT22;10508;50.956;4.640;2023-07-20T16:18:26;22.50;99.90
20698;DHT22;10508;50.956;4.640;2023-07-20T16:20:51;22.40;99.90
20698;DHT22;10508;50.956;4.640;2023-07-20T16:23:18;21.90;99.90
20698;DHT22;10508;50.956;4.640;2023-07-20T16:25:47;21.20;99.90
20698;DHT22;10508;50.956;4.640;2023-07-20T16:28:13;20.60;99.90
20698;DHT22;10508;50.956;4.640;2023-07-20T16:30:39;20.10;99.90
20698;DHT22;10508;50.956;4.640;2023-07-20T16:33:05;19.90;99.90
20698;DHT22;10508;50.956;4.640;2023-07-20T17:42:00;19.00;99.90
20698;DHT22;10508;50.956;4.640;2023-07-20T17:46:53;19.00;99.90
20698;DHT22;10508;50.956;4.640;2023-07-20T17:49:21;19.20;99.90
20698;DHT22;10508;50.956;4.640;2023-07-20T17:54:14;18.70;99.90
20698;DHT22;10508;50.956;4.640;2023-07-20T18:04:07;18.70;99.90
20698;DHT22;10508;50.956;4.640;2023-07-20T18:06:32;18.40;99.90
20698;DHT22;10508;50.956;4.640;2023-07-20T18:08:58;18.50;99.90
20698;DHT22;10508;50.956;4.640;2023-07-20T18:11:23;18.60;99.90
20698;DHT22;10508;50.956;4.640;2023-07-20T18:13:49;18.80;99.90
20698;DHT22;10508;50.956;4.640;2023-07-20T18:16:15;19.10;99.90
20698;DHT22;10508;50.956;4.640;2023-07-20T18:18:41;18.90;99.90
20698;DHT22;10508;50.956;4.640;2023-07-20T18:21:07;19.10;99.90
20698;DHT22;10508;50.956;4.640;2023-07-20T18:23:33;18.90;99.90
20698;DHT22;10508;50.956;4.640;2023-07-20T18:30:54;19.00;99.90
20698;DHT22;10508;50.956;4.640;2023-07-20T18:38:17;18.90;99.90
20698;DHT22;10508;50.956;4.640;2023-07-20T18:45:40;19.00;99.90
20698;DHT22;10508;50.956;4.640;2023-07-20T19:47:34;17.90;99.90
20698;DHT22;10508;50.956;4.640;2023-07-20T21:41:51;16.40;99.90
20698;DHT22;10508;50.956;4.640;2023-07-20T21:44:34;16.50;99.90
20698;DHT22;10508;50.956;4.640;2023-07-20T21:47:00;16.30;99.90
20698;DHT22;10508;50.956;4.640;2023-07-20T21:49:25;16.30;99.90
20698;DHT22;10508;50.956;4.640;2023-07-20T21:51:51;16.30;99.90
20698;DHT22;10508;50.956;4.640;2023-07-20T21:54:17;16.30;99.90
20698;DHT22;10508;50.956;4.640;2023-07-20T21:56:42;16.10;99.90
20698;DHT22;10508;50.956;4.640;2023-07-20T21:59:08;16.10;99.90
20698;DHT22;10508;50.956;4.640;2023-07-20T22:01:33;16.20;99.90
20698;DHT22;10508;50.956;4.640;2023-07-20T22:03:59;16.20;99.90
20698;DHT22;10508;50.956;4.640;2023-07-20T22:06:25;16.10;99.90
20698;DHT22;10508;50.956;4.640;2023-07-20T22:08:50;16.20;99.90
20698;DHT22;10508;50.956;4.640;2023-07-20T22:13:46;16.10;99.90
20698;DHT22;10508;50.956;4.640;2023-07-20T22:16:11;16.10;99.90
20698;DHT22;10508;50.956;4.640;2023-07-20T22:18:37;16.00;99.90
20698;DHT22;10508;50.956;4.640;2023-07-20T22:21:04;16.00;99.90
20698;DHT22;10508;50.956;4.640;2023-07-20T22:23:33;15.90;99.90
20698;DHT22;10508;50.956;4.640;2023-07-20T22:25:59;15.90;99.90
20698;DHT22;10508;50.956;4.640;2023-07-20T22:28:25;16.00;99.90
20698;DHT22;10508;50.956;4.640;2023-07-20T22:30:53;15.90;99.90
20698;DHT22;10508;50.956;4.640;2023-07-20T22:33:22;15.90;99.90
20698;DHT22;10508;50.956;4.640;2023-07-20T22:35:47;15.90;99.90
20698;DHT22;10508;50.956;4.640;2023-07-20T22:38:14;15.80;99.90
20698;DHT22;10508;50.956;4.640;2023-07-20T22:40:40;15.70;99.90
20698;DHT22;10508;50.956;4.640;2023-07-20T22:43:06;15.70;99.90
20698;DHT22;10508;50.956;4.640;2023-07-20T22:45:32;15.70;99.90
20698;DHT22;10508;50.956;4.640;2023-07-20T22:47:58;15.80;99.90
20698;DHT22;10508;50.956;4.640;2023-07-20T22:50:23;15.80;99.90
20698;DHT22;10508;50.956;4.640;2023-07-20T22:52:50;15.70;99.90
20698;DHT22;10508;50.956;4.640;2023-07-20T22:55:15;15.70;99.90
20698;DHT22;10508;50.956;4.640;2023-07-20T22:57:41;15.70;99.90
20698;DHT22;10508;50.956;4.640;2023-07-20T23:02:35;15.70;99.90
20698;DHT22;10508;50.956;4.640;2023-07-20T23:05:07;15.70;99.90
20698;DHT22;10508;50.956;4.640;2023-07-20T23:07:33;15.80;99.90
20698;DHT22;10508;50.956;4.640;2023-07-20T23:09:59;15.80;99.90
20698;DHT22;10508;50.956;4.640;2023-07-20T23:12:24;15.80;99.90
20698;DHT22;10508;50.956;4.640;2023-07-20T23:14:50;15.70;99.90
20698;DHT22;10508;50.956;4.640;2023-07-20T23:17:15;15.70;99.90
20698;DHT22;10508;50.956;4.640;2023-07-20T23:19:42;15.70;99.90
20698;DHT22;10508;50.956;4.640;2023-07-20T23:22:08;15.60;99.90
20698;DHT22;10508;50.956;4.640;2023-07-20T23:24:34;15.60;99.90
20698;DHT22;10508;50.956;4.640;2023-07-20T23:27:00;15.60;99.90
20698;DHT22;10508;50.956;4.640;2023-07-20T23:29:25;15.60;99.90
20698;DHT22;10508;50.956;4.640;2023-07-20T23:31:51;15.60;99.90
20698;DHT22;10508;50.956;4.640;2023-07-20T23:34:17;15.50;99.90
20698;DHT22;10508;50.956;4.640;2023-07-20T23:36:42;15.50;99.90
20698;DHT22;10508;50.956;4.640;2023-07-20T23:39:08;15.60;99.90
20698;DHT22;10508;50.956;4.640;2023-07-20T23:41:34;15.40;99.90
20698;DHT22;10508;50.956;4.640;2023-07-20T23:44:01;15.40;99.90
20698;DHT22;10508;50.956;4.640;2023-07-20T23:46:27;15.30;99.90
20698;DHT22;10508;50.956;4.640;2023-07-20T23:48:53;15.40;99.90
20698;DHT22;10508;50.956;4.640;2023-07-20T23:51:20;15.40;99.90
20698;DHT22;10508;50.956;4.640;2023-07-20T23:53:46;15.40;99.90
20698;DHT22;10508;50.956;4.640;2023-07-20T23:56:13;15.40;99.90
20698;DHT22;10508;50.956;4.640;2023-07-20T23:58:42;15.40;99.90
